sensor_id;sensor_type;location;lat;lon;timestamp;P1;durP1;ratioP1;P2;durP2;ratioP2
51382;SDS011;37475;43.358;1.248;2023-02-28T00:00:49;7.55;;;4.43;;
51382;SDS011;37475;43.358;1.248;2023-02-28T00:03:15;7.53;;;4.10;;
51382;SDS011;37475;43.358;1.248;2023-02-28T00:05:41;8.23;;;4.82;;
51382;SDS011;37475;43.358;1.248;2023-02-28T00:08:07;7.68;;;4.57;;
51382;SDS011;37475;43.358;1.248;2023-02-28T00:10:34;9.73;;;5.03;;
51382;SDS011;37475;43.358;1.248;2023-02-28T00:13:04;8.10;;;4.22;;
51382;SDS011;37475;43.358;1.248;2023-02-28T00:15:31;8.40;;;5.40;;
51382;SDS011;37475;43.358;1.248;2023-02-28T00:17:58;7.28;;;3.95;;
51382;SDS011;37475;43.358;1.248;2023-02-28T00:20:24;9.45;;;5.63;;
51382;SDS011;37475;43.358;1.248;2023-02-28T00:22:50;10.32;;;5.35;;
51382;SDS011;37475;43.358;1.248;2023-02-28T00:25:19;9.77;;;5.47;;
51382;SDS011;37475;43.358;1.248;2023-02-28T00:27:47;9.38;;;5.30;;
51382;SDS011;37475;43.358;1.248;2023-02-28T00:30:15;9.73;;;4.07;;
51382;SDS011;37475;43.358;1.248;2023-02-28T00:32:43;6.80;;;4.32;;
51382;SDS011;37475;43.358;1.248;2023-02-28T00:35:10;7.70;;;4.15;;
51382;SDS011;37475;43.358;1.248;2023-02-28T00:37:37;9.55;;;4.30;;
51382;SDS011;37475;43.358;1.248;2023-02-28T00:40:03;8.65;;;5.20;;
51382;SDS011;37475;43.358;1.248;2023-02-28T00:42:31;6.93;;;3.70;;
51382;SDS011;37475;43.358;1.248;2023-02-28T00:44:57;7.43;;;4.13;;
51382;SDS011;37475;43.358;1.248;2023-02-28T00:47:23;7.78;;;4.32;;
51382;SDS011;37475;43.358;1.248;2023-02-28T00:49:49;7.88;;;4.32;;
51382;SDS011;37475;43.358;1.248;2023-02-28T00:52:15;6.90;;;4.38;;
51382;SDS011;37475;43.358;1.248;2023-02-28T00:54:41;8.85;;;5.07;;
51382;SDS011;37475;43.358;1.248;2023-02-28T00:57:06;9.25;;;5.65;;
51382;SDS011;37475;43.358;1.248;2023-02-28T00:59:32;10.68;;;5.10;;
51382;SDS011;37475;43.358;1.248;2023-02-28T01:01:59;9.60;;;5.85;;
51382;SDS011;37475;43.358;1.248;2023-02-28T01:04:25;7.40;;;4.05;;
51382;SDS011;37475;43.358;1.248;2023-02-28T01:06:51;10.20;;;5.20;;
51382;SDS011;37475;43.358;1.248;2023-02-28T01:09:17;8.02;;;5.15;;
51382;SDS011;37475;43.358;1.248;2023-02-28T01:11:43;8.63;;;4.90;;
51382;SDS011;37475;43.358;1.248;2023-02-28T01:14:13;8.95;;;4.93;;
51382;SDS011;37475;43.358;1.248;2023-02-28T01:16:41;10.88;;;6.07;;
51382;SDS011;37475;43.358;1.248;2023-02-28T01:19:07;9.38;;;4.97;;
51382;SDS011;37475;43.358;1.248;2023-02-28T01:21:33;8.98;;;5.10;;
51382;SDS011;37475;43.358;1.248;2023-02-28T01:24:00;10.02;;;5.85;;
51382;SDS011;37475;43.358;1.248;2023-02-28T01:26:26;7.95;;;4.88;;
51382;SDS011;37475;43.358;1.248;2023-02-28T01:28:52;9.52;;;5.57;;
51382;SDS011;37475;43.358;1.248;2023-02-28T01:31:19;9.48;;;5.63;;
51382;SDS011;37475;43.358;1.248;2023-02-28T01:33:46;9.32;;;5.65;;
51382;SDS011;37475;43.358;1.248;2023-02-28T01:36:16;9.18;;;5.70;;
51382;SDS011;37475;43.358;1.248;2023-02-28T01:38:46;10.95;;;6.07;;
51382;SDS011;37475;43.358;1.248;2023-02-28T01:41:22;8.30;;;5.43;;
51382;SDS011;37475;43.358;1.248;2023-02-28T01:44:02;8.13;;;5.03;;
51382;SDS011;37475;43.358;1.248;2023-02-28T01:46:52;7.85;;;4.72;;
51382;SDS011;37475;43.358;1.248;2023-02-28T01:49:17;9.75;;;5.35;;
51382;SDS011;37475;43.358;1.248;2023-02-28T01:51:54;11.02;;;5.60;;
51382;SDS011;37475;43.358;1.248;2023-02-28T01:54:25;8.98;;;5.07;;
51382;SDS011;37475;43.358;1.248;2023-02-28T01:56:59;8.75;;;5.05;;
51382;SDS011;37475;43.358;1.248;2023-02-28T01:59:44;10.07;;;5.40;;
51382;SDS011;37475;43.358;1.248;2023-02-28T02:02:26;11.50;;;5.28;;
51382;SDS011;37475;43.358;1.248;2023-02-28T02:04:55;8.73;;;4.78;;
51382;SDS011;37475;43.358;1.248;2023-02-28T02:07:33;7.75;;;4.45;;
51382;SDS011;37475;43.358;1.248;2023-02-28T02:24:23;8.00;;;4.70;;
51382;SDS011;37475;43.358;1.248;2023-02-28T02:27:18;8.75;;;5.10;;
51382;SDS011;37475;43.358;1.248;2023-02-28T02:35:54;9.35;;;4.80;;
51382;SDS011;37475;43.358;1.248;2023-02-28T02:39:22;7.57;;;4.13;;
51382;SDS011;37475;43.358;1.248;2023-02-28T02:41:46;10.70;;;5.38;;
51382;SDS011;37475;43.358;1.248;2023-02-28T02:44:24;9.15;;;4.20;;
51382;SDS011;37475;43.358;1.248;2023-02-28T02:47:19;8.45;;;4.53;;
51382;SDS011;37475;43.358;1.248;2023-02-28T02:49:50;9.23;;;5.25;;
51382;SDS011;37475;43.358;1.248;2023-02-28T02:52:22;10.52;;;5.68;;
51382;SDS011;37475;43.358;1.248;2023-02-28T02:54:56;8.93;;;4.53;;
51382;SDS011;37475;43.358;1.248;2023-02-28T02:57:28;10.57;;;5.05;;
51382;SDS011;37475;43.358;1.248;2023-02-28T03:00:02;11.52;;;5.97;;
51382;SDS011;37475;43.358;1.248;2023-02-28T03:02:33;8.15;;;5.28;;
51382;SDS011;37475;43.358;1.248;2023-02-28T03:05:07;8.15;;;5.50;;
51382;SDS011;37475;43.358;1.248;2023-02-28T03:07:43;8.52;;;4.70;;
51382;SDS011;37475;43.358;1.248;2023-02-28T03:10:25;9.85;;;5.45;;
51382;SDS011;37475;43.358;1.248;2023-02-28T03:12:53;7.75;;;4.82;;
51382;SDS011;37475;43.358;1.248;2023-02-28T03:15:39;10.75;;;4.18;;
51382;SDS011;37475;43.358;1.248;2023-02-28T03:18:38;9.93;;;5.30;;
51382;SDS011;37475;43.358;1.248;2023-02-28T03:21:16;10.70;;;5.93;;
51382;SDS011;37475;43.358;1.248;2023-02-28T03:24:11;8.52;;;5.10;;
51382;SDS011;37475;43.358;1.248;2023-02-28T03:26:52;8.40;;;4.88;;
51382;SDS011;37475;43.358;1.248;2023-02-28T03:29:28;9.05;;;5.13;;
51382;SDS011;37475;43.358;1.248;2023-02-28T03:32:11;8.27;;;3.92;;
51382;SDS011;37475;43.358;1.248;2023-02-28T03:35:07;7.10;;;3.63;;
51382;SDS011;37475;43.358;1.248;2023-02-28T03:37:47;8.98;;;5.47;;
51382;SDS011;37475;43.358;1.248;2023-02-28T03:40:25;10.63;;;5.05;;
51382;SDS011;37475;43.358;1.248;2023-02-28T03:42:58;8.90;;;5.18;;
51382;SDS011;37475;43.358;1.248;2023-02-28T03:45:29;7.85;;;4.35;;
51382;SDS011;37475;43.358;1.248;2023-02-28T03:48:10;10.32;;;4.95;;
51382;SDS011;37475;43.358;1.248;2023-02-28T03:51:06;13.00;;;5.40;;
51382;SDS011;37475;43.358;1.248;2023-02-28T03:53:57;7.75;;;4.63;;
51382;SDS011;37475;43.358;1.248;2023-02-28T03:56:43;9.57;;;4.57;;
51382;SDS011;37475;43.358;1.248;2023-02-28T03:59:37;11.73;;;5.22;;
51382;SDS011;37475;43.358;1.248;2023-02-28T04:02:08;9.30;;;5.18;;
51382;SDS011;37475;43.358;1.248;2023-02-28T04:04:34;9.32;;;4.97;;
51382;SDS011;37475;43.358;1.248;2023-02-28T04:07:02;7.65;;;5.05;;
51382;SDS011;37475;43.358;1.248;2023-02-28T04:09:31;9.35;;;4.70;;
51382;SDS011;37475;43.358;1.248;2023-02-28T04:11:57;6.70;;;3.78;;
51382;SDS011;37475;43.358;1.248;2023-02-28T04:14:23;9.63;;;4.57;;
51382;SDS011;37475;43.358;1.248;2023-02-28T04:16:50;6.65;;;4.10;;
51382;SDS011;37475;43.358;1.248;2023-02-28T04:19:16;9.05;;;5.25;;
51382;SDS011;37475;43.358;1.248;2023-02-28T04:21:46;6.85;;;4.15;;
51382;SDS011;37475;43.358;1.248;2023-02-28T04:24:15;10.23;;;5.90;;
51382;SDS011;37475;43.358;1.248;2023-02-28T04:26:48;10.57;;;6.20;;
51382;SDS011;37475;43.358;1.248;2023-02-28T04:29:38;9.90;;;6.18;;
51382;SDS011;37475;43.358;1.248;2023-02-28T04:32:03;7.85;;;4.13;;
51382;SDS011;37475;43.358;1.248;2023-02-28T04:34:30;10.30;;;5.22;;
51382;SDS011;37475;43.358;1.248;2023-02-28T04:36:57;9.73;;;4.85;;
51382;SDS011;37475;43.358;1.248;2023-02-28T04:39:23;11.75;;;4.22;;
51382;SDS011;37475;43.358;1.248;2023-02-28T04:41:49;8.52;;;4.80;;
51382;SDS011;37475;43.358;1.248;2023-02-28T04:44:15;10.50;;;6.20;;
51382;SDS011;37475;43.358;1.248;2023-02-28T04:46:42;9.27;;;5.35;;
51382;SDS011;37475;43.358;1.248;2023-02-28T04:49:12;9.65;;;5.45;;
51382;SDS011;37475;43.358;1.248;2023-02-28T04:51:38;9.98;;;6.13;;
51382;SDS011;37475;43.358;1.248;2023-02-28T04:54:04;10.80;;;6.38;;
51382;SDS011;37475;43.358;1.248;2023-02-28T04:56:30;10.38;;;5.20;;
51382;SDS011;37475;43.358;1.248;2023-02-28T04:58:56;10.95;;;5.90;;
51382;SDS011;37475;43.358;1.248;2023-02-28T05:01:26;10.10;;;5.32;;
51382;SDS011;37475;43.358;1.248;2023-02-28T05:03:56;9.85;;;5.70;;
51382;SDS011;37475;43.358;1.248;2023-02-28T05:06:24;7.95;;;4.35;;
51382;SDS011;37475;43.358;1.248;2023-02-28T05:08:52;9.35;;;5.10;;
51382;SDS011;37475;43.358;1.248;2023-02-28T05:11:20;12.95;;;4.75;;
51382;SDS011;37475;43.358;1.248;2023-02-28T05:13:46;9.90;;;5.05;;
51382;SDS011;37475;43.358;1.248;2023-02-28T05:16:14;8.70;;;4.65;;
51382;SDS011;37475;43.358;1.248;2023-02-28T05:18:40;9.00;;;4.80;;
51382;SDS011;37475;43.358;1.248;2023-02-28T05:21:12;9.77;;;4.95;;
51382;SDS011;37475;43.358;1.248;2023-02-28T05:23:52;10.95;;;5.40;;
51382;SDS011;37475;43.358;1.248;2023-02-28T05:26:19;9.95;;;5.57;;
51382;SDS011;37475;43.358;1.248;2023-02-28T05:28:45;9.15;;;5.43;;
51382;SDS011;37475;43.358;1.248;2023-02-28T05:31:11;10.75;;;6.15;;
51382;SDS011;37475;43.358;1.248;2023-02-28T05:33:37;10.75;;;6.10;;
51382;SDS011;37475;43.358;1.248;2023-02-28T05:36:03;12.70;;;6.15;;
51382;SDS011;37475;43.358;1.248;2023-02-28T05:38:29;8.50;;;4.97;;
51382;SDS011;37475;43.358;1.248;2023-02-28T05:40:55;8.18;;;5.22;;
51382;SDS011;37475;43.358;1.248;2023-02-28T05:43:21;10.25;;;6.07;;
51382;SDS011;37475;43.358;1.248;2023-02-28T05:45:47;11.88;;;6.07;;
51382;SDS011;37475;43.358;1.248;2023-02-28T05:48:13;12.20;;;6.18;;
51382;SDS011;37475;43.358;1.248;2023-02-28T05:50:39;14.23;;;7.20;;
51382;SDS011;37475;43.358;1.248;2023-02-28T05:53:05;12.43;;;6.85;;
51382;SDS011;37475;43.358;1.248;2023-02-28T05:55:31;13.70;;;7.60;;
51382;SDS011;37475;43.358;1.248;2023-02-28T05:57:57;12.70;;;7.40;;
51382;SDS011;37475;43.358;1.248;2023-02-28T06:00:23;12.48;;;7.18;;
51382;SDS011;37475;43.358;1.248;2023-02-28T06:02:49;11.55;;;7.63;;
51382;SDS011;37475;43.358;1.248;2023-02-28T06:05:17;13.52;;;7.45;;
51382;SDS011;37475;43.358;1.248;2023-02-28T06:07:43;10.80;;;7.05;;
51382;SDS011;37475;43.358;1.248;2023-02-28T06:10:10;14.57;;;7.50;;
51382;SDS011;37475;43.358;1.248;2023-02-28T06:12:37;11.43;;;7.47;;
51382;SDS011;37475;43.358;1.248;2023-02-28T06:15:03;12.05;;;7.22;;
51382;SDS011;37475;43.358;1.248;2023-02-28T06:17:30;12.48;;;6.28;;
51382;SDS011;37475;43.358;1.248;2023-02-28T06:19:56;10.88;;;6.80;;
51382;SDS011;37475;43.358;1.248;2023-02-28T06:22:21;13.55;;;6.90;;
51382;SDS011;37475;43.358;1.248;2023-02-28T06:24:48;10.30;;;6.55;;
51382;SDS011;37475;43.358;1.248;2023-02-28T06:27:14;13.85;;;7.45;;
51382;SDS011;37475;43.358;1.248;2023-02-28T06:29:40;10.95;;;6.68;;
51382;SDS011;37475;43.358;1.248;2023-02-28T06:32:06;11.15;;;6.50;;
51382;SDS011;37475;43.358;1.248;2023-02-28T06:34:32;12.13;;;6.80;;
51382;SDS011;37475;43.358;1.248;2023-02-28T06:36:58;19.60;;;7.68;;
51382;SDS011;37475;43.358;1.248;2023-02-28T06:39:27;13.75;;;7.78;;
51382;SDS011;37475;43.358;1.248;2023-02-28T06:41:54;15.50;;;8.60;;
51382;SDS011;37475;43.358;1.248;2023-02-28T06:44:21;14.60;;;8.07;;
51382;SDS011;37475;43.358;1.248;2023-02-28T06:46:48;14.80;;;7.78;;
51382;SDS011;37475;43.358;1.248;2023-02-28T06:49:14;18.35;;;9.00;;
51382;SDS011;37475;43.358;1.248;2023-02-28T06:51:41;20.17;;;9.63;;
51382;SDS011;37475;43.358;1.248;2023-02-28T06:54:10;18.77;;;9.10;;
51382;SDS011;37475;43.358;1.248;2023-02-28T06:56:37;11.65;;;7.30;;
51382;SDS011;37475;43.358;1.248;2023-02-28T06:59:03;13.40;;;7.65;;
51382;SDS011;37475;43.358;1.248;2023-02-28T07:01:29;11.75;;;7.07;;
51382;SDS011;37475;43.358;1.248;2023-02-28T07:03:56;11.18;;;6.82;;
51382;SDS011;37475;43.358;1.248;2023-02-28T07:06:22;10.77;;;6.50;;
51382;SDS011;37475;43.358;1.248;2023-02-28T07:08:50;10.95;;;6.30;;
51382;SDS011;37475;43.358;1.248;2023-02-28T07:11:17;10.88;;;6.72;;
51382;SDS011;37475;43.358;1.248;2023-02-28T07:13:46;11.05;;;6.40;;
51382;SDS011;37475;43.358;1.248;2023-02-28T07:16:12;11.65;;;7.53;;
51382;SDS011;37475;43.358;1.248;2023-02-28T07:18:38;10.95;;;7.03;;
51382;SDS011;37475;43.358;1.248;2023-02-28T07:21:05;10.90;;;6.28;;
51382;SDS011;37475;43.358;1.248;2023-02-28T07:23:33;10.30;;;6.53;;
51382;SDS011;37475;43.358;1.248;2023-02-28T07:26:00;10.20;;;6.43;;
51382;SDS011;37475;43.358;1.248;2023-02-28T07:28:26;12.18;;;6.65;;
51382;SDS011;37475;43.358;1.248;2023-02-28T07:30:52;14.63;;;7.40;;
51382;SDS011;37475;43.358;1.248;2023-02-28T07:33:18;13.30;;;7.15;;
51382;SDS011;37475;43.358;1.248;2023-02-28T07:35:44;13.05;;;7.15;;
51382;SDS011;37475;43.358;1.248;2023-02-28T07:38:10;13.32;;;6.38;;
51382;SDS011;37475;43.358;1.248;2023-02-28T07:40:38;12.27;;;6.35;;
51382;SDS011;37475;43.358;1.248;2023-02-28T07:43:05;11.90;;;6.35;;
51382;SDS011;37475;43.358;1.248;2023-02-28T07:45:31;10.80;;;6.47;;
51382;SDS011;37475;43.358;1.248;2023-02-28T07:47:59;11.10;;;5.95;;
51382;SDS011;37475;43.358;1.248;2023-02-28T07:50:26;12.10;;;5.70;;
51382;SDS011;37475;43.358;1.248;2023-02-28T07:52:56;12.15;;;6.45;;
51382;SDS011;37475;43.358;1.248;2023-02-28T07:55:23;8.32;;;5.53;;
51382;SDS011;37475;43.358;1.248;2023-02-28T07:57:49;10.77;;;6.03;;
51382;SDS011;37475;43.358;1.248;2023-02-28T08:00:15;7.65;;;4.95;;
51382;SDS011;37475;43.358;1.248;2023-02-28T08:02:41;9.10;;;5.72;;
51382;SDS011;37475;43.358;1.248;2023-02-28T08:05:07;9.32;;;4.82;;
51382;SDS011;37475;43.358;1.248;2023-02-28T08:07:33;11.05;;;5.32;;
51382;SDS011;37475;43.358;1.248;2023-02-28T08:09:59;8.43;;;4.50;;
51382;SDS011;37475;43.358;1.248;2023-02-28T08:12:25;8.55;;;4.05;;
51382;SDS011;37475;43.358;1.248;2023-02-28T08:14:51;8.90;;;4.85;;
51382;SDS011;37475;43.358;1.248;2023-02-28T08:17:17;7.97;;;4.55;;
51382;SDS011;37475;43.358;1.248;2023-02-28T08:19:46;8.68;;;4.35;;
51382;SDS011;37475;43.358;1.248;2023-02-28T08:22:12;8.88;;;4.25;;
51382;SDS011;37475;43.358;1.248;2023-02-28T08:24:38;8.50;;;4.78;;
51382;SDS011;37475;43.358;1.248;2023-02-28T08:27:07;8.82;;;4.60;;
51382;SDS011;37475;43.358;1.248;2023-02-28T08:29:33;7.75;;;4.20;;
51382;SDS011;37475;43.358;1.248;2023-02-28T08:31:59;10.13;;;4.75;;
51382;SDS011;37475;43.358;1.248;2023-02-28T08:34:25;8.80;;;4.75;;
51382;SDS011;37475;43.358;1.248;2023-02-28T08:36:50;6.97;;;4.05;;
51382;SDS011;37475;43.358;1.248;2023-02-28T08:39:16;6.63;;;3.80;;
51382;SDS011;37475;43.358;1.248;2023-02-28T08:41:42;7.13;;;3.53;;
51382;SDS011;37475;43.358;1.248;2023-02-28T08:44:09;7.97;;;4.00;;
51382;SDS011;37475;43.358;1.248;2023-02-28T08:46:34;7.05;;;4.30;;
51382;SDS011;37475;43.358;1.248;2023-02-28T08:49:00;6.50;;;3.22;;
51382;SDS011;37475;43.358;1.248;2023-02-28T08:51:27;8.95;;;4.28;;
51382;SDS011;37475;43.358;1.248;2023-02-28T08:53:54;7.28;;;3.95;;
51382;SDS011;37475;43.358;1.248;2023-02-28T08:56:24;5.85;;;3.28;;
51382;SDS011;37475;43.358;1.248;2023-02-28T08:58:50;8.23;;;3.78;;
51382;SDS011;37475;43.358;1.248;2023-02-28T09:01:20;8.02;;;4.55;;
51382;SDS011;37475;43.358;1.248;2023-02-28T09:03:48;8.15;;;3.85;;
51382;SDS011;37475;43.358;1.248;2023-02-28T09:06:17;6.32;;;3.33;;
51382;SDS011;37475;43.358;1.248;2023-02-28T09:08:44;6.35;;;4.00;;
51382;SDS011;37475;43.358;1.248;2023-02-28T09:11:10;7.53;;;3.90;;
51382;SDS011;37475;43.358;1.248;2023-02-28T09:13:37;6.38;;;3.75;;
51382;SDS011;37475;43.358;1.248;2023-02-28T09:16:04;7.60;;;3.40;;
51382;SDS011;37475;43.358;1.248;2023-02-28T09:18:36;6.40;;;3.83;;
51382;SDS011;37475;43.358;1.248;2023-02-28T09:21:06;6.43;;;3.47;;
51382;SDS011;37475;43.358;1.248;2023-02-28T09:23:36;7.32;;;3.40;;
51382;SDS011;37475;43.358;1.248;2023-02-28T09:26:04;5.05;;;2.85;;
51382;SDS011;37475;43.358;1.248;2023-02-28T09:28:31;7.05;;;3.97;;
51382;SDS011;37475;43.358;1.248;2023-02-28T09:30:57;5.57;;;3.63;;
51382;SDS011;37475;43.358;1.248;2023-02-28T09:33:24;5.82;;;3.67;;
51382;SDS011;37475;43.358;1.248;2023-02-28T09:35:51;8.57;;;4.13;;
51382;SDS011;37475;43.358;1.248;2023-02-28T09:38:23;5.95;;;3.85;;
51382;SDS011;37475;43.358;1.248;2023-02-28T09:40:53;8.32;;;4.35;;
51382;SDS011;37475;43.358;1.248;2023-02-28T09:43:35;7.75;;;4.13;;
51382;SDS011;37475;43.358;1.248;2023-02-28T09:48:52;6.30;;;3.95;;
51382;SDS011;37475;43.358;1.248;2023-02-28T09:54:04;6.00;;;3.63;;
51382;SDS011;37475;43.358;1.248;2023-02-28T09:56:32;5.45;;;2.97;;
51382;SDS011;37475;43.358;1.248;2023-02-28T09:59:09;5.80;;;3.53;;
51382;SDS011;37475;43.358;1.248;2023-02-28T10:04:38;6.95;;;3.90;;
51382;SDS011;37475;43.358;1.248;2023-02-28T10:10:27;7.45;;;3.60;;
51382;SDS011;37475;43.358;1.248;2023-02-28T10:13:04;6.90;;;4.35;;
51382;SDS011;37475;43.358;1.248;2023-02-28T10:15:52;7.45;;;4.28;;
51382;SDS011;37475;43.358;1.248;2023-02-28T10:18:46;7.18;;;3.03;;
51382;SDS011;37475;43.358;1.248;2023-02-28T10:21:35;6.57;;;3.67;;
51382;SDS011;37475;43.358;1.248;2023-02-28T10:26:45;6.55;;;3.53;;
51382;SDS011;37475;43.358;1.248;2023-02-28T10:29:13;7.60;;;4.60;;
51382;SDS011;37475;43.358;1.248;2023-02-28T10:31:40;6.15;;;3.53;;
51382;SDS011;37475;43.358;1.248;2023-02-28T10:34:07;7.10;;;4.57;;
51382;SDS011;37475;43.358;1.248;2023-02-28T10:36:37;8.23;;;4.10;;
51382;SDS011;37475;43.358;1.248;2023-02-28T10:39:32;7.93;;;4.40;;
51382;SDS011;37475;43.358;1.248;2023-02-28T10:42:15;7.55;;;4.43;;
51382;SDS011;37475;43.358;1.248;2023-02-28T10:45:05;6.10;;;3.08;;
51382;SDS011;37475;43.358;1.248;2023-02-28T10:47:37;9.45;;;4.60;;
51382;SDS011;37475;43.358;1.248;2023-02-28T10:50:30;6.10;;;3.83;;
51382;SDS011;37475;43.358;1.248;2023-02-28T10:53:45;7.57;;;4.53;;
51382;SDS011;37475;43.358;1.248;2023-02-28T10:55:59;8.48;;;3.85;;
51382;SDS011;37475;43.358;1.248;2023-02-28T11:04:20;7.20;;;3.05;;
51382;SDS011;37475;43.358;1.248;2023-02-28T11:09:44;6.72;;;3.30;;
51382;SDS011;37475;43.358;1.248;2023-02-28T11:15:07;6.15;;;3.92;;
51382;SDS011;37475;43.358;1.248;2023-02-28T11:17:56;7.20;;;4.28;;
51382;SDS011;37475;43.358;1.248;2023-02-28T11:20:38;5.80;;;3.40;;
51382;SDS011;37475;43.358;1.248;2023-02-28T11:23:05;6.30;;;4.10;;
51382;SDS011;37475;43.358;1.248;2023-02-28T11:25:38;6.50;;;4.15;;
51382;SDS011;37475;43.358;1.248;2023-02-28T11:28:05;7.07;;;4.07;;
51382;SDS011;37475;43.358;1.248;2023-02-28T11:33:46;5.53;;;3.17;;
51382;SDS011;37475;43.358;1.248;2023-02-28T11:36:21;7.22;;;3.95;;
51382;SDS011;37475;43.358;1.248;2023-02-28T11:38:51;8.52;;;3.75;;
51382;SDS011;37475;43.358;1.248;2023-02-28T11:47:07;8.95;;;4.00;;
51382;SDS011;37475;43.358;1.248;2023-02-28T11:56:06;8.27;;;4.28;;
51382;SDS011;37475;43.358;1.248;2023-02-28T12:04:25;7.70;;;4.93;;
51382;SDS011;37475;43.358;1.248;2023-02-28T12:11:00;9.40;;;5.00;;
51382;SDS011;37475;43.358;1.248;2023-02-28T12:19:20;9.18;;;5.85;;
51382;SDS011;37475;43.358;1.248;2023-02-28T12:25:03;8.13;;;5.07;;
51382;SDS011;37475;43.358;1.248;2023-02-28T12:27:41;9.48;;;6.07;;
51382;SDS011;37475;43.358;1.248;2023-02-28T12:30:16;8.35;;;4.47;;
51382;SDS011;37475;43.358;1.248;2023-02-28T12:32:57;11.30;;;6.25;;
51382;SDS011;37475;43.358;1.248;2023-02-28T12:35:55;12.00;;;6.32;;
51382;SDS011;37475;43.358;1.248;2023-02-28T12:41:00;24.48;;;14.15;;
51382;SDS011;37475;43.358;1.248;2023-02-28T12:44:00;9.50;;;5.88;;
51382;SDS011;37475;43.358;1.248;2023-02-28T12:46:36;8.65;;;4.90;;
51382;SDS011;37475;43.358;1.248;2023-02-28T12:49:12;11.85;;;6.80;;
51382;SDS011;37475;43.358;1.248;2023-02-28T12:51:50;9.20;;;5.63;;
51382;SDS011;37475;43.358;1.248;2023-02-28T13:00:22;9.43;;;5.70;;
51382;SDS011;37475;43.358;1.248;2023-02-28T13:02:57;18.63;;;12.25;;
51382;SDS011;37475;43.358;1.248;2023-02-28T13:05:49;11.48;;;6.72;;
51382;SDS011;37475;43.358;1.248;2023-02-28T13:14:06;9.02;;;5.60;;
51382;SDS011;37475;43.358;1.248;2023-02-28T13:19:29;9.88;;;5.78;;
51382;SDS011;37475;43.358;1.248;2023-02-28T13:29:40;8.07;;;5.22;;
51382;SDS011;37475;43.358;1.248;2023-02-28T13:34:42;10.23;;;5.88;;
51382;SDS011;37475;43.358;1.248;2023-02-28T13:37:33;9.40;;;5.50;;
51382;SDS011;37475;43.358;1.248;2023-02-28T13:42:35;15.00;;;9.10;;
51382;SDS011;37475;43.358;1.248;2023-02-28T13:45:21;8.85;;;5.25;;
51382;SDS011;37475;43.358;1.248;2023-02-28T13:48:00;11.10;;;5.75;;
51382;SDS011;37475;43.358;1.248;2023-02-28T13:50:29;8.07;;;4.93;;
51382;SDS011;37475;43.358;1.248;2023-02-28T13:55:58;7.85;;;5.03;;
51382;SDS011;37475;43.358;1.248;2023-02-28T14:07:25;7.80;;;4.15;;
51382;SDS011;37475;43.358;1.248;2023-02-28T14:10:02;7.70;;;4.10;;
51382;SDS011;37475;43.358;1.248;2023-02-28T14:18:16;16.88;;;10.35;;
51382;SDS011;37475;43.358;1.248;2023-02-28T14:21:23;7.50;;;5.10;;
51382;SDS011;37475;43.358;1.248;2023-02-28T14:27:08;16.63;;;5.18;;
51382;SDS011;37475;43.358;1.248;2023-02-28T14:35:54;9.40;;;5.38;;
51382;SDS011;37475;43.358;1.248;2023-02-28T14:38:41;8.30;;;5.25;;
51382;SDS011;37475;43.358;1.248;2023-02-28T14:41:15;7.72;;;4.10;;
51382;SDS011;37475;43.358;1.248;2023-02-28T14:43:55;7.25;;;3.85;;
51382;SDS011;37475;43.358;1.248;2023-02-28T14:46:25;6.80;;;4.38;;
51382;SDS011;37475;43.358;1.248;2023-02-28T14:49:03;11.43;;;6.95;;
51382;SDS011;37475;43.358;1.248;2023-02-28T14:51:32;8.60;;;5.35;;
51382;SDS011;37475;43.358;1.248;2023-02-28T14:53:59;7.57;;;4.70;;
51382;SDS011;37475;43.358;1.248;2023-02-28T14:56:28;7.22;;;4.35;;
51382;SDS011;37475;43.358;1.248;2023-02-28T14:59:05;9.27;;;4.85;;
51382;SDS011;37475;43.358;1.248;2023-02-28T15:08:15;6.47;;;4.47;;
51382;SDS011;37475;43.358;1.248;2023-02-28T15:10:49;7.78;;;3.67;;
51382;SDS011;37475;43.358;1.248;2023-02-28T15:13:39;8.63;;;4.15;;
51382;SDS011;37475;43.358;1.248;2023-02-28T15:16:12;6.03;;;3.70;;
51382;SDS011;37475;43.358;1.248;2023-02-28T15:21:17;6.75;;;4.85;;
51382;SDS011;37475;43.358;1.248;2023-02-28T15:23:54;7.68;;;4.63;;
51382;SDS011;37475;43.358;1.248;2023-02-28T15:26:34;8.73;;;5.28;;
51382;SDS011;37475;43.358;1.248;2023-02-28T15:29:07;8.15;;;5.22;;
51382;SDS011;37475;43.358;1.248;2023-02-28T15:31:45;7.47;;;4.82;;
51382;SDS011;37475;43.358;1.248;2023-02-28T15:34:20;15.23;;;8.52;;
51382;SDS011;37475;43.358;1.248;2023-02-28T15:37:28;10.18;;;4.78;;
51382;SDS011;37475;43.358;1.248;2023-02-28T15:40:32;9.38;;;4.43;;
51382;SDS011;37475;43.358;1.248;2023-02-28T15:43:04;8.85;;;4.70;;
51382;SDS011;37475;43.358;1.248;2023-02-28T15:45:50;7.63;;;4.93;;
51382;SDS011;37475;43.358;1.248;2023-02-28T15:51:19;8.23;;;4.90;;
51382;SDS011;37475;43.358;1.248;2023-02-28T15:57:04;13.23;;;7.07;;
51382;SDS011;37475;43.358;1.248;2023-02-28T15:59:34;9.18;;;5.32;;
51382;SDS011;37475;43.358;1.248;2023-02-28T16:05:00;9.32;;;5.75;;
51382;SDS011;37475;43.358;1.248;2023-02-28T16:07:42;7.43;;;4.43;;
51382;SDS011;37475;43.358;1.248;2023-02-28T16:10:09;6.45;;;3.90;;
51382;SDS011;37475;43.358;1.248;2023-02-28T16:12:39;10.43;;;5.28;;
51382;SDS011;37475;43.358;1.248;2023-02-28T16:15:09;8.45;;;4.63;;
51382;SDS011;37475;43.358;1.248;2023-02-28T16:17:44;7.63;;;4.18;;
51382;SDS011;37475;43.358;1.248;2023-02-28T16:20:15;7.30;;;4.28;;
51382;SDS011;37475;43.358;1.248;2023-02-28T16:22:50;9.10;;;4.20;;
51382;SDS011;37475;43.358;1.248;2023-02-28T16:25:18;7.30;;;3.25;;
51382;SDS011;37475;43.358;1.248;2023-02-28T16:27:48;9.15;;;4.82;;
51382;SDS011;37475;43.358;1.248;2023-02-28T16:30:22;9.55;;;5.38;;
51382;SDS011;37475;43.358;1.248;2023-02-28T16:32:51;9.43;;;4.80;;
51382;SDS011;37475;43.358;1.248;2023-02-28T16:35:19;8.98;;;5.30;;
51382;SDS011;37475;43.358;1.248;2023-02-28T16:37:46;8.27;;;4.57;;
51382;SDS011;37475;43.358;1.248;2023-02-28T16:40:14;8.20;;;5.03;;
51382;SDS011;37475;43.358;1.248;2023-02-28T16:42:45;26.92;;;14.45;;
51382;SDS011;37475;43.358;1.248;2023-02-28T16:45:17;46.88;;;22.70;;
51382;SDS011;37475;43.358;1.248;2023-02-28T16:50:17;68.18;;;33.33;;
51382;SDS011;37475;43.358;1.248;2023-02-28T16:52:46;56.77;;;27.23;;
51382;SDS011;37475;43.358;1.248;2023-02-28T16:55:13;44.95;;;22.60;;
51382;SDS011;37475;43.358;1.248;2023-02-28T16:57:39;50.15;;;24.70;;
51382;SDS011;37475;43.358;1.248;2023-02-28T17:00:06;71.13;;;32.80;;
51382;SDS011;37475;43.358;1.248;2023-02-28T17:02:35;52.50;;;28.20;;
51382;SDS011;37475;43.358;1.248;2023-02-28T17:05:01;23.70;;;14.10;;
51382;SDS011;37475;43.358;1.248;2023-02-28T17:07:27;29.58;;;18.65;;
51382;SDS011;37475;43.358;1.248;2023-02-28T17:09:53;35.78;;;23.33;;
51382;SDS011;37475;43.358;1.248;2023-02-28T17:12:18;38.47;;;24.67;;
51382;SDS011;37475;43.358;1.248;2023-02-28T17:14:44;12.73;;;8.32;;
51382;SDS011;37475;43.358;1.248;2023-02-28T17:17:15;29.58;;;20.00;;
51382;SDS011;37475;43.358;1.248;2023-02-28T17:19:45;28.27;;;17.38;;
51382;SDS011;37475;43.358;1.248;2023-02-28T17:22:11;32.50;;;19.33;;
51382;SDS011;37475;43.358;1.248;2023-02-28T17:24:38;32.40;;;19.95;;
51382;SDS011;37475;43.358;1.248;2023-02-28T17:27:04;25.48;;;16.17;;
51382;SDS011;37475;43.358;1.248;2023-02-28T17:29:30;40.95;;;25.73;;
51382;SDS011;37475;43.358;1.248;2023-02-28T17:31:56;39.25;;;22.65;;
51382;SDS011;37475;43.358;1.248;2023-02-28T17:34:21;32.65;;;18.17;;
51382;SDS011;37475;43.358;1.248;2023-02-28T17:36:48;23.70;;;13.07;;
51382;SDS011;37475;43.358;1.248;2023-02-28T17:39:16;83.43;;;35.75;;
51382;SDS011;37475;43.358;1.248;2023-02-28T17:41:53;48.25;;;22.35;;
51382;SDS011;37475;43.358;1.248;2023-02-28T17:44:20;48.92;;;22.50;;